createdAt,value
2024-02-24T00:00:25.170Z,99593.19
2024-02-24T00:02:51.576Z,99596.38
2024-02-24T00:05:18.057Z,99609.06
2024-02-24T00:07:44.453Z,99605.25
2024-02-24T00:10:11.209Z,99611.56
2024-02-24T00:12:37.714Z,99609.16
2024-02-24T00:15:04.400Z,99608.81
2024-02-24T00:17:30.864Z,99613.41
2024-02-24T00:19:57.370Z,99610.22
2024-02-24T00:22:23.744Z,99615.56
2024-02-24T00:24:50.144Z,99608.03
2024-02-24T00:27:16.602Z,99614.41
2024-02-24T00:29:43.000Z,99600.84
2024-02-24T00:32:09.445Z,99599.94
2024-02-24T00:34:35.947Z,99601.97
2024-02-24T00:37:02.373Z,99603.00
2024-02-24T00:39:28.774Z,99602.53
2024-02-24T00:41:55.501Z,99609.56
2024-02-24T00:44:21.939Z,99605.25
2024-02-24T00:46:48.590Z,99606.16
2024-02-24T00:49:15.247Z,99603.34
2024-02-24T00:51:42.661Z,99605.00
2024-02-24T00:54:09.538Z,99602.50
2024-02-24T00:56:38.902Z,99610.47
2024-02-24T00:59:05.507Z,99608.66
2024-02-24T01:01:31.907Z,99609.56
2024-02-24T01:03:58.644Z,99609.72
2024-02-24T01:06:25.023Z,99610.44
2024-02-24T01:08:51.431Z,99597.69
2024-02-24T01:11:17.912Z,99602.53
2024-02-24T01:13:44.525Z,99593.44
2024-02-24T01:16:10.978Z,99590.72
2024-02-24T01:18:37.592Z,99596.16
2024-02-24T01:21:04.161Z,99586.66
2024-02-24T01:23:30.536Z,99583.53
2024-02-24T01:25:57.006Z,99576.38
2024-02-24T01:28:23.444Z,99567.88
2024-02-24T01:30:50.143Z,99568.31
2024-02-24T01:33:16.834Z,99561.28
2024-02-24T01:35:43.469Z,99555.53
2024-02-24T01:38:09.954Z,99552.13
2024-02-24T01:40:36.414Z,99546.88
2024-02-24T01:43:04.005Z,99539.72
2024-02-24T01:45:30.403Z,99533.59
2024-02-24T01:47:58.208Z,99531.97
2024-02-24T01:50:25.089Z,99522.34
2024-02-24T01:52:51.616Z,99509.59
2024-02-24T01:55:18.934Z,99511.91
2024-02-24T01:57:45.642Z,99492.53
2024-02-24T02:00:12.796Z,99481.16
2024-02-24T02:02:40.198Z,99468.97
2024-02-24T02:05:07.094Z,99463.31
2024-02-24T02:07:33.985Z,99455.97
2024-02-24T02:10:00.742Z,99449.13
2024-02-24T02:12:27.641Z,99447.16
2024-02-24T02:14:54.210Z,99444.06
2024-02-24T02:17:20.909Z,99462.00
2024-02-24T02:19:47.329Z,99460.25
2024-02-24T02:22:17.331Z,99461.72
2024-02-24T02:24:44.514Z,99463.28
2024-02-24T02:27:10.866Z,99465.28
2024-02-24T02:29:37.259Z,99459.44
2024-02-24T02:32:03.713Z,99464.16
2024-02-24T02:34:30.148Z,99456.94
2024-02-24T02:36:56.575Z,99455.25
2024-02-24T02:39:23.175Z,99449.22
2024-02-24T02:41:49.562Z,99450.81
2024-02-24T02:44:16.102Z,99452.56
2024-02-24T02:46:49.256Z,99445.56
2024-02-24T02:49:19.072Z,99438.47
2024-02-24T02:51:45.712Z,99436.94
2024-02-24T02:54:12.131Z,99442.16
2024-02-24T02:56:38.595Z,99431.59
2024-02-24T02:59:05.076Z,99424.06
2024-02-24T03:01:31.516Z,99419.25
2024-02-24T03:03:58.031Z,99423.94
2024-02-24T03:06:26.302Z,99409.84
2024-02-24T03:08:56.713Z,99394.22
2024-02-24T03:11:23.620Z,99387.84
2024-02-24T03:13:50.758Z,99390.00
2024-02-24T03:16:18.362Z,99387.44
2024-02-24T03:18:44.876Z,99373.47
2024-02-24T03:21:11.289Z,99376.78
2024-02-24T03:23:37.724Z,99378.22
2024-02-24T03:26:04.381Z,99374.66
2024-02-24T03:28:30.761Z,99373.88
2024-02-24T03:30:57.182Z,99361.81
2024-02-24T03:33:23.647Z,99366.09
2024-02-24T03:35:50.207Z,99358.13
2024-02-24T03:38:16.688Z,99362.75
2024-02-24T03:40:43.061Z,99358.28
2024-02-24T03:43:09.496Z,99353.81
2024-02-24T03:45:36.887Z,99361.56
2024-02-24T03:48:03.375Z,99357.75
2024-02-24T03:50:29.879Z,99352.13
2024-02-24T03:52:56.354Z,99359.41
2024-02-24T03:55:23.187Z,99360.59
2024-02-24T03:57:49.544Z,99354.94
2024-02-24T04:00:16.071Z,99347.47
2024-02-24T04:02:42.742Z,99339.31
2024-02-24T04:05:09.218Z,99334.19
2024-02-24T04:07:35.630Z,99331.59
2024-02-24T04:10:02.240Z,99316.94
2024-02-24T04:12:28.640Z,99308.91
2024-02-24T04:14:55.068Z,99294.44
2024-02-24T04:17:21.535Z,99295.50
2024-02-24T04:19:47.888Z,99291.13
2024-02-24T04:22:14.313Z,99297.88
2024-02-24T04:24:40.927Z,99290.38
2024-02-24T04:27:07.329Z,99286.75
2024-02-24T04:29:33.822Z,99288.44
2024-02-24T04:32:00.241Z,99303.94
2024-02-24T04:34:26.671Z,99297.66
2024-02-24T04:36:53.122Z,99288.38
2024-02-24T04:39:20.685Z,99277.97
2024-02-24T04:41:47.146Z,99268.63
2024-02-24T04:44:15.516Z,99257.88
2024-02-24T04:46:42.019Z,99249.16
2024-02-24T04:49:09.978Z,99242.66
2024-02-24T04:51:36.526Z,99247.25
2024-02-24T04:54:03.239Z,99265.09
2024-02-24T04:56:29.750Z,99272.16
2024-02-24T04:58:56.268Z,99262.44
2024-02-24T05:01:22.850Z,99257.19
2024-02-24T05:03:49.298Z,99265.81
2024-02-24T05:06:15.897Z,99244.97
2024-02-24T05:08:44.957Z,99245.13
2024-02-24T05:11:11.483Z,99244.84
2024-02-24T05:13:37.998Z,99246.59
2024-02-24T05:16:05.567Z,99227.09
2024-02-24T05:18:32.344Z,99230.34
2024-02-24T05:21:02.113Z,99225.78
2024-02-24T05:23:28.531Z,99216.81
2024-02-24T05:25:54.949Z,99214.22
2024-02-24T05:28:21.387Z,99210.03
2024-02-24T05:30:48.815Z,99212.41
2024-02-24T05:33:15.919Z,99203.56
2024-02-24T05:35:42.698Z,99205.59
2024-02-24T05:38:09.906Z,99198.03
2024-02-24T05:40:36.379Z,99197.88
2024-02-24T05:43:02.794Z,99192.97
2024-02-24T05:45:29.176Z,99185.81
2024-02-24T05:47:57.555Z,99182.88
2024-02-24T05:50:24.107Z,99186.28
2024-02-24T05:52:50.605Z,99185.63
2024-02-24T05:55:17.060Z,99181.25
2024-02-24T05:57:46.129Z,99176.06
2024-02-24T06:00:12.934Z,99173.69
2024-02-24T06:02:39.815Z,99179.38
2024-02-24T06:05:06.525Z,99172.88
2024-02-24T06:07:33.402Z,99163.44
2024-02-24T06:09:59.832Z,99164.19
2024-02-24T06:12:26.309Z,99152.63
2024-02-24T06:14:52.744Z,99158.38
2024-02-24T06:17:19.416Z,99163.03
2024-02-24T06:19:45.832Z,99157.94
2024-02-24T06:22:12.284Z,99129.19
2024-02-24T06:24:38.685Z,99129.84
2024-02-24T06:27:05.113Z,99127.44
2024-02-24T06:29:31.568Z,99125.75
2024-02-24T06:31:57.964Z,99132.81
2024-02-24T06:34:24.383Z,99120.47
2024-02-24T06:36:50.863Z,99112.13
2024-02-24T06:39:17.236Z,99116.03
2024-02-24T06:41:43.700Z,99118.66
2024-02-24T06:44:10.227Z,99124.91
2024-02-24T06:46:36.663Z,99117.94
2024-02-24T06:49:04.137Z,99114.59
2024-02-24T06:51:30.841Z,99108.44
2024-02-24T06:53:57.332Z,99104.19
2024-02-24T06:56:23.793Z,99098.63
2024-02-24T06:58:50.165Z,99099.53
2024-02-24T07:01:23.563Z,99098.44
2024-02-24T07:03:50.223Z,99095.97
2024-02-24T07:06:17.221Z,99088.59
2024-02-24T07:08:43.935Z,99073.69
2024-02-24T07:11:10.546Z,99068.94
2024-02-24T07:13:36.985Z,99070.53
2024-02-24T07:16:04.417Z,99064.38
2024-02-24T07:18:30.931Z,99069.84
2024-02-24T07:21:00.637Z,99064.72
2024-02-24T07:23:28.863Z,99060.03
2024-02-24T07:25:55.339Z,99059.91
2024-02-24T07:28:21.709Z,99057.50
2024-02-24T07:30:48.981Z,99053.72
2024-02-24T07:33:15.607Z,99050.25
2024-02-24T07:35:42.056Z,99053.84
2024-02-24T07:38:08.624Z,99044.50
2024-02-24T07:40:35.599Z,99039.09
2024-02-24T07:43:03.534Z,99027.94
2024-02-24T07:45:29.892Z,99026.50
2024-02-24T07:47:56.604Z,99025.16
2024-02-24T07:50:23.183Z,99028.38
2024-02-24T07:52:50.693Z,99032.75
2024-02-24T07:55:17.312Z,99032.94
2024-02-24T07:57:43.728Z,99037.94
2024-02-24T08:00:10.368Z,99033.91
2024-02-24T08:02:37.715Z,99035.66
2024-02-24T08:05:05.568Z,99034.94
2024-02-24T08:07:32.266Z,99032.16
2024-02-24T08:09:58.668Z,99027.06
2024-02-24T08:12:25.173Z,99039.16
2024-02-24T08:14:51.906Z,99036.50
2024-02-24T08:17:18.479Z,99035.25
2024-02-24T08:19:44.939Z,99042.00
2024-02-24T08:22:11.355Z,99046.50
2024-02-24T08:24:37.759Z,99038.00
2024-02-24T08:27:04.336Z,99045.84
2024-02-24T08:29:33.424Z,99043.19
2024-02-24T08:31:59.949Z,99039.66
2024-02-24T08:34:26.417Z,99043.28
2024-02-24T08:36:52.882Z,99044.16
2024-02-24T08:39:19.612Z,99051.28
2024-02-24T08:41:46.014Z,99040.88
2024-02-24T08:44:12.738Z,99039.97
2024-02-24T08:46:39.195Z,99049.78
2024-02-24T08:49:05.582Z,99069.38
2024-02-24T08:51:32.036Z,99059.53
2024-02-24T08:53:58.525Z,99069.31
2024-02-24T08:56:26.162Z,99065.63
2024-02-24T08:58:52.855Z,99072.63
2024-02-24T09:01:22.362Z,99079.97
2024-02-24T09:03:48.832Z,99089.03
2024-02-24T09:06:16.756Z,99093.13
2024-02-24T09:08:43.752Z,99105.34
2024-02-24T09:11:10.421Z,99108.69
2024-02-24T09:13:36.866Z,99111.00
2024-02-24T09:16:03.256Z,99110.28
2024-02-24T09:18:31.681Z,99117.91
2024-02-24T09:20:58.264Z,99131.16
2024-02-24T09:23:24.806Z,99131.41
2024-02-24T09:25:51.184Z,99146.00
2024-02-24T09:28:17.538Z,99145.63
2024-02-24T09:30:43.988Z,99148.88
2024-02-24T09:33:10.539Z,99151.91
2024-02-24T09:35:37.112Z,99161.81
2024-02-24T09:38:03.570Z,99161.81
2024-02-24T09:40:29.964Z,99160.69
2024-02-24T09:43:04.543Z,99168.78
2024-02-24T09:45:35.405Z,99170.28
2024-02-24T09:48:02.456Z,99179.47
2024-02-24T09:50:29.018Z,99181.03
2024-02-24T09:52:55.420Z,99183.06
2024-02-24T09:55:24.032Z,99189.56
2024-02-24T09:57:50.444Z,99192.19
2024-02-24T10:00:16.912Z,99189.41
2024-02-24T10:02:43.834Z,99197.78
2024-02-24T10:05:10.510Z,99214.22
2024-02-24T10:07:37.303Z,99209.31
2024-02-24T10:10:04.399Z,99211.03
2024-02-24T10:12:32.185Z,99222.28
2024-02-24T10:14:58.619Z,99220.53
2024-02-24T10:17:25.322Z,99224.16
2024-02-24T10:19:51.899Z,99224.78
2024-02-24T10:22:18.677Z,99232.31
2024-02-24T10:24:45.077Z,99238.34
2024-02-24T10:27:11.587Z,99248.31
2024-02-24T10:29:37.983Z,99254.53
2024-02-24T10:32:04.964Z,99254.66
2024-02-24T10:34:31.492Z,99273.50
2024-02-24T10:36:59.077Z,99267.47
2024-02-24T10:39:26.601Z,99280.91
2024-02-24T10:41:53.185Z,99290.25
2024-02-24T10:44:23.130Z,99293.78
2024-02-24T10:46:50.692Z,99307.81
2024-02-24T10:49:17.344Z,99313.06
2024-02-24T10:51:47.287Z,99327.66
2024-02-24T10:54:14.187Z,99328.28
2024-02-24T10:56:40.807Z,99329.63
2024-02-24T10:59:07.834Z,99340.19
2024-02-24T11:01:38.742Z,99339.44
2024-02-24T11:04:13.057Z,99353.06
2024-02-24T11:06:46.532Z,99363.94
2024-02-24T11:09:32.041Z,99363.41
2024-02-24T11:12:11.637Z,99370.31
2024-02-24T11:14:58.571Z,99353.44
2024-02-24T11:17:43.886Z,99370.69
2024-02-24T11:20:10.401Z,99396.31
2024-02-24T11:22:36.860Z,99411.88
2024-02-24T11:25:04.843Z,99420.38
2024-02-24T11:27:36.000Z,99438.00
2024-02-24T11:30:21.180Z,99441.75
2024-02-24T11:33:02.476Z,99454.59
2024-02-24T11:35:29.102Z,99468.75
2024-02-24T11:37:55.643Z,99472.66
2024-02-24T11:40:22.026Z,99480.22
2024-02-24T11:42:48.661Z,99480.50
2024-02-24T11:45:15.910Z,99493.97
2024-02-24T11:47:43.151Z,99511.69
2024-02-24T11:50:09.847Z,99509.81
2024-02-24T11:52:36.290Z,99524.38
2024-02-24T11:55:02.680Z,99529.47
2024-02-24T11:57:29.094Z,99532.97
2024-02-24T11:59:56.663Z,99538.63
2024-02-24T12:02:23.133Z,99536.38
2024-02-24T12:04:49.823Z,99542.34
2024-02-24T12:07:16.422Z,99553.72
2024-02-24T12:09:43.450Z,99555.16
2024-02-24T12:12:09.969Z,99550.94
2024-02-24T12:14:36.527Z,99555.31
2024-02-24T12:17:04.386Z,99551.38
2024-02-24T12:19:35.740Z,99549.38
2024-02-24T12:22:06.554Z,99550.16
2024-02-24T12:24:32.977Z,99545.78
2024-02-24T12:27:00.390Z,99549.75
2024-02-24T12:29:28.150Z,99558.28
2024-02-24T12:31:54.830Z,99568.84
2024-02-24T12:34:21.559Z,99567.13
2024-02-24T12:36:48.295Z,99576.19
2024-02-24T12:39:17.293Z,99584.22
2024-02-24T12:41:43.671Z,99585.03
2024-02-24T12:44:10.101Z,99577.66
2024-02-24T12:46:37.290Z,99589.00
2024-02-24T12:49:03.939Z,99594.94
2024-02-24T12:51:30.457Z,99595.22
2024-02-24T12:53:56.961Z,99611.38
2024-02-24T12:56:23.463Z,99624.69
2024-02-24T12:58:51.729Z,99611.84
2024-02-24T13:01:18.342Z,99608.38
2024-02-24T13:03:44.833Z,99615.63
2024-02-24T13:06:11.498Z,99626.25
2024-02-24T13:08:38.111Z,99633.84
2024-02-24T13:11:04.828Z,99641.13
2024-02-24T13:13:31.288Z,99648.09
2024-02-24T13:15:57.684Z,99649.72
2024-02-24T13:18:24.297Z,99648.28
2024-02-24T13:20:50.884Z,99652.94
2024-02-24T13:23:18.302Z,99644.94
2024-02-24T13:25:44.806Z,99656.00
2024-02-24T13:28:12.658Z,99663.50
2024-02-24T13:30:39.052Z,99663.44
2024-02-24T13:33:05.655Z,99667.47
2024-02-24T13:35:32.204Z,99674.25
2024-02-24T13:37:58.731Z,99676.84
2024-02-24T13:40:25.871Z,99672.00
2024-02-24T13:42:54.518Z,99679.91
2024-02-24T13:45:20.918Z,99678.34
2024-02-24T13:47:50.004Z,99692.94
2024-02-24T13:50:21.160Z,99711.78
2024-02-24T13:52:47.618Z,99707.22
2024-02-24T13:55:13.993Z,99718.47
2024-02-24T13:57:40.392Z,99718.84
2024-02-24T14:00:11.772Z,99729.25
2024-02-24T14:02:38.349Z,99741.00
2024-02-24T14:05:05.666Z,99727.09
2024-02-24T14:07:33.286Z,99747.59
2024-02-24T14:10:00.450Z,99749.06
2024-02-24T14:12:27.030Z,99762.63
2024-02-24T14:14:53.512Z,99757.53
2024-02-24T14:17:19.974Z,99745.31
2024-02-24T14:19:46.524Z,99753.88
2024-02-24T14:22:12.993Z,99757.53
2024-02-24T14:24:39.583Z,99764.38
2024-02-24T14:27:06.116Z,99766.38
2024-02-24T14:29:32.654Z,99766.09
2024-02-24T14:31:59.128Z,99763.34
2024-02-24T14:34:25.999Z,99770.00
2024-02-24T14:36:55.107Z,99761.88
2024-02-24T14:39:21.843Z,99765.34
2024-02-24T14:41:48.418Z,99763.81
2024-02-24T14:44:14.843Z,99766.72
2024-02-24T14:47:00.266Z,99784.41
2024-02-24T14:49:26.838Z,99779.94
2024-02-24T14:51:53.331Z,99805.13
2024-02-24T14:54:21.647Z,99797.84
2024-02-24T14:56:48.513Z,99817.09
2024-02-24T14:59:14.928Z,99817.16
2024-02-24T15:01:41.375Z,99824.16
2024-02-24T15:04:07.921Z,99824.81
2024-02-24T15:06:34.463Z,99828.34
2024-02-24T15:09:01.097Z,99836.31
2024-02-24T15:11:27.738Z,99838.22
2024-02-24T15:13:54.204Z,99853.75
2024-02-24T15:16:20.682Z,99852.75
2024-02-24T15:18:49.857Z,99849.56
2024-02-24T15:21:16.322Z,99849.47
2024-02-24T15:23:42.823Z,99871.41
2024-02-24T15:26:09.336Z,99870.91
2024-02-24T15:28:35.893Z,99873.16
2024-02-24T15:31:04.690Z,99878.75
2024-02-24T15:33:31.234Z,99875.69
2024-02-24T15:35:58.299Z,99878.16
2024-02-24T15:38:24.889Z,99885.13
2024-02-24T15:40:51.277Z,99890.00
2024-02-24T15:43:17.674Z,99891.81
2024-02-24T15:45:44.207Z,99889.66
2024-02-24T15:48:11.639Z,99899.25
2024-02-24T15:50:38.170Z,99895.84
2024-02-24T15:53:05.019Z,99900.63
2024-02-24T15:55:31.386Z,99909.50
2024-02-24T15:57:58.697Z,99905.16
2024-02-24T16:00:25.255Z,99911.63
2024-02-24T16:02:51.734Z,99916.97
2024-02-24T16:05:18.877Z,99918.78
2024-02-24T16:07:45.386Z,99924.84
2024-02-24T16:10:11.728Z,99926.97
2024-02-24T16:12:38.097Z,99938.47
2024-02-24T16:15:04.919Z,99943.84
2024-02-24T16:17:31.550Z,99947.56
2024-02-24T16:19:59.649Z,99949.50
2024-02-24T16:22:26.101Z,99953.91
2024-02-24T16:24:52.546Z,99949.75
2024-02-24T16:27:18.919Z,99955.28
2024-02-24T16:29:45.817Z,99960.50
2024-02-24T16:32:12.224Z,99970.31
2024-02-24T16:34:38.583Z,99978.41
2024-02-24T16:37:05.202Z,99994.09
2024-02-24T16:39:33.655Z,99999.59
2024-02-24T16:42:00.508Z,100005.94
2024-02-24T16:44:28.114Z,100013.81
2024-02-24T16:46:55.848Z,100021.66
2024-02-24T16:49:22.293Z,100025.31
2024-02-24T16:51:49.785Z,100024.38
2024-02-24T16:54:17.628Z,100035.88
2024-02-24T16:56:44.068Z,100038.56
2024-02-24T16:59:11.127Z,100043.03
2024-02-24T17:01:37.554Z,100051.03
2024-02-24T17:04:04.289Z,100052.78
2024-02-24T17:06:30.923Z,100056.44
2024-02-24T17:08:57.499Z,100058.25
2024-02-24T17:11:24.351Z,100054.00
2024-02-24T17:13:50.872Z,100060.06
2024-02-24T17:16:17.251Z,100065.22
2024-02-24T17:18:43.796Z,100061.03
2024-02-24T17:21:10.487Z,100068.16
2024-02-24T17:23:39.693Z,100080.50
2024-02-24T17:26:15.257Z,100075.28
2024-02-24T17:28:41.624Z,100090.94
2024-02-24T17:31:11.274Z,100094.53
2024-02-24T17:33:37.732Z,100097.91
2024-02-24T17:36:06.977Z,100089.34
2024-02-24T17:38:33.386Z,100093.88
2024-02-24T17:41:01.398Z,100096.53
2024-02-24T17:43:28.007Z,100098.19
2024-02-24T17:45:54.397Z,100098.38
2024-02-24T17:48:22.698Z,100097.56
2024-02-24T17:50:52.406Z,100099.47
2024-02-24T17:53:19.699Z,100105.59
2024-02-24T17:55:46.673Z,100098.84
2024-02-24T17:58:13.193Z,100101.53
2024-02-24T18:00:39.989Z,100106.00
2024-02-24T18:03:06.498Z,100101.69
2024-02-24T18:05:33.110Z,100106.22
2024-02-24T18:07:59.569Z,100101.88
2024-02-24T18:10:26.136Z,100106.22
2024-02-24T18:12:52.977Z,100106.41
2024-02-24T18:15:19.776Z,100112.56
2024-02-24T18:17:46.428Z,100108.19
2024-02-24T18:20:13.376Z,100113.59
2024-02-24T18:22:41.953Z,100119.66
2024-02-24T18:25:09.856Z,100124.00
2024-02-24T18:27:36.257Z,100121.59
2024-02-24T18:30:05.621Z,100124.31
2024-02-24T18:32:32.786Z,100127.06
2024-02-24T18:34:59.297Z,100128.84
2024-02-24T18:37:25.699Z,100131.47
2024-02-24T18:39:52.229Z,100130.69
2024-02-24T18:42:21.790Z,100137.38
2024-02-24T18:44:48.371Z,100139.16
2024-02-24T18:47:14.924Z,100139.22
2024-02-24T18:49:41.387Z,100138.41
2024-02-24T18:52:11.157Z,100144.44
2024-02-24T18:54:37.610Z,100138.53
2024-02-24T18:57:04.468Z,100147.03
2024-02-24T18:59:32.697Z,100147.09
2024-02-24T19:01:59.222Z,100158.44
2024-02-24T19:04:25.807Z,100154.13
2024-02-24T19:06:52.159Z,100161.13
2024-02-24T19:09:18.903Z,100170.78
2024-02-24T19:11:47.312Z,100172.66
2024-02-24T19:14:14.877Z,100170.03
2024-02-24T19:16:41.322Z,100173.44
2024-02-24T19:19:08.357Z,100180.44
2024-02-24T19:21:34.941Z,100181.34
2024-02-24T19:24:01.417Z,100177.84
2024-02-24T19:26:27.852Z,100179.34
2024-02-24T19:28:55.052Z,100173.44
2024-02-24T19:31:21.955Z,100186.59
2024-02-24T19:33:48.653Z,100184.09
2024-02-24T19:36:15.216Z,100176.41
2024-02-24T19:38:41.743Z,100182.50
2024-02-24T19:41:09.348Z,100183.25
2024-02-24T19:43:35.791Z,100189.41
2024-02-24T19:46:02.308Z,100193.88
2024-02-24T19:48:28.838Z,100195.53
2024-02-24T19:50:55.584Z,100196.38
2024-02-24T19:53:22.084Z,100192.13
2024-02-24T19:55:48.589Z,100194.66
2024-02-24T19:58:24.824Z,100196.38
2024-02-24T20:01:00.848Z,100205.91
2024-02-24T20:03:27.649Z,100210.13
2024-02-24T20:05:54.263Z,100208.50
2024-02-24T20:08:20.943Z,100211.69
2024-02-24T20:10:47.368Z,100216.94
2024-02-24T20:13:13.783Z,100210.88
2024-02-24T20:15:41.580Z,100216.19
2024-02-24T20:18:08.161Z,100215.22
2024-02-24T20:20:34.710Z,100213.44
2024-02-24T20:23:01.141Z,100225.72
2024-02-24T20:25:27.597Z,100226.59
2024-02-24T20:27:54.137Z,100226.59
2024-02-24T20:30:20.662Z,100222.22
2024-02-24T20:32:53.607Z,100227.31
2024-02-24T20:35:21.153Z,100229.84
2024-02-24T20:37:47.860Z,100240.44
2024-02-24T20:40:14.409Z,100233.53
2024-02-24T20:42:41.480Z,100236.28
2024-02-24T20:45:08.265Z,100239.72
2024-02-24T20:47:34.959Z,100241.47
2024-02-24T20:50:01.405Z,100245.78
2024-02-24T20:52:27.919Z,100238.03
2024-02-24T20:54:54.339Z,100241.56
2024-02-24T20:57:21.242Z,100238.03
2024-02-24T20:59:47.781Z,100237.19
2024-02-24T21:02:14.207Z,100240.63
2024-02-24T21:04:42.776Z,100243.38
2024-02-24T21:07:09.398Z,100239.00
2024-02-24T21:09:35.817Z,100242.50
2024-02-24T21:12:02.291Z,100244.38
2024-02-24T21:14:29.216Z,100245.22
2024-02-24T21:16:55.658Z,100241.75
2024-02-24T21:19:23.199Z,100242.69
2024-02-24T21:21:50.116Z,100243.59
2024-02-24T21:24:16.606Z,100250.66
2024-02-24T21:26:43.026Z,100258.44
2024-02-24T21:29:09.463Z,100249.03
2024-02-24T21:31:35.949Z,100253.38
2024-02-24T21:34:02.630Z,100256.88
2024-02-24T21:36:29.881Z,100264.69
2024-02-24T21:38:56.496Z,100268.13
2024-02-24T21:41:22.955Z,100266.41
2024-02-24T21:43:49.496Z,100273.25
2024-02-24T21:46:17.124Z,100273.34
2024-02-24T21:48:43.944Z,100274.19
2024-02-24T21:51:10.548Z,100273.31
2024-02-24T21:53:37.093Z,100275.09
2024-02-24T21:56:06.319Z,100280.38
2024-02-24T21:58:32.824Z,100284.69
2024-02-24T22:00:59.559Z,100284.69
2024-02-24T22:03:27.182Z,100284.69
2024-02-24T22:05:53.936Z,100281.31
2024-02-24T22:08:20.471Z,100286.50
2024-02-24T22:10:47.401Z,100283.19
2024-02-24T22:13:13.986Z,100285.81
2024-02-24T22:15:40.928Z,100286.78
2024-02-24T22:18:07.568Z,100282.44
2024-02-24T22:20:34.171Z,100291.25
2024-02-24T22:23:00.565Z,100280.84
2024-02-24T22:25:30.071Z,100284.31
2024-02-24T22:27:56.505Z,100287.81
2024-02-24T22:30:23.073Z,100293.94
2024-02-24T22:32:49.672Z,100297.38
2024-02-24T22:35:17.150Z,100296.53
2024-02-24T22:37:44.690Z,100298.19
2024-02-24T22:40:11.223Z,100306.00
2024-02-24T22:42:37.699Z,100302.59
2024-02-24T22:45:05.670Z,100307.81
2024-02-24T22:47:32.337Z,100301.66
2024-02-24T22:49:58.836Z,100296.56
2024-02-24T22:52:25.286Z,100298.38
2024-02-24T22:54:51.826Z,100296.56
2024-02-24T22:57:18.230Z,100303.47
2024-02-24T22:59:47.550Z,100297.47
2024-02-24T23:02:17.470Z,100302.66
2024-02-24T23:04:43.891Z,100304.31
2024-02-24T23:07:10.318Z,100309.41
2024-02-24T23:09:36.755Z,100301.66
2024-02-24T23:12:03.434Z,100306.81
2024-02-24T23:14:30.103Z,100308.53
2024-02-24T23:16:56.493Z,100321.50
2024-02-24T23:19:23.082Z,100324.06
2024-02-24T23:21:49.658Z,100328.44
2024-02-24T23:24:16.104Z,100331.00
2024-02-24T23:26:42.901Z,100339.69
2024-02-24T23:29:11.309Z,100337.97
2024-02-24T23:31:37.652Z,100333.59
2024-02-24T23:34:04.278Z,100332.72
2024-02-24T23:36:30.906Z,100333.50
2024-02-24T23:38:57.283Z,100336.94
2024-02-24T23:41:23.849Z,100335.13
2024-02-24T23:43:50.216Z,100335.19
2024-02-24T23:46:16.650Z,100340.41
2024-02-24T23:48:44.728Z,100348.19
2024-02-24T23:51:11.343Z,100352.47
2024-02-24T23:53:40.903Z,100351.59
2024-02-24T23:56:07.631Z,100347.25
2024-02-24T23:58:34.040Z,100346.41
